FNLUFNMA

Guest
Details From FNLU - LUANDA 4 DE FEVEREIRO
To FNMA - MALANJE
Flight Number -
Tags generated
Created
Modified
Stats Distance 187 nm / 346 km
Max Altitude 21,500 ft / 6,553 m
Waypoints 3
Social Downloads 0
Likes 0
Share VATSIM

Download

Looking for another format? Having issues loading an existing format? Contact us
Advertisement - Login to hide

Notes

Basic altitude profile: - Ascent Rate: 2500ft/min - Ascent Speed: 250kts - Cruise Altitude: 35000ft - Cruise Speed: 420kts - Descent Rate: 1500ft/min - Descent Speed: 250kts Options: - Use NATs: yes - Use PACOTS: yes - Use low airways: yes - Use high airways: yes

Route

FNLU AVOVA FNMA

ID Type Via Altitude Latitude Longitude Leg Dist Tot Dist Heading (true) Name
O FNLU APT - 0 ft / 0 m -8.85838˚ 13.23118˚ - 0 nm - LUANDA 4 DE FEVEREIRO
AVOVA FIX - 21,500 ft / 6,553 m -9.13917˚ 14.58056˚ 81 nm 81 nm 102° / 102° -
O FNMA APT - 0 ft / 0 m -9.52508˚ 16.31241˚ 105 nm 187 nm 103° / 103° MALANJE

Altitude Profile

Advertisement - Login to hide

Weather


0- 5 10 15 20 25 30 35+ Temperature / ° C

Clouds and Precipitation
Forecast for 2018-05-27 12:00 UTC. Updated an hour ago

Ground ~20,000 ft ~40,000 ft Winds

FNLU

Details ICAO FNLU (LAD)
Name LUANDA 4 DE FEVEREIRO
Region Angola
Timezone Africa/Luanda (UTC+1.0)
Stats Elevation 243 ft / 74 m (AMSL)
Location -8.858377° 13.231178°
Runways 2
Magnetic Variation 3.406° W

METAR

FNLU 270900Z VRB03KT 8000 BKN020 26/21 Q1003

Decode

TAF

TAF TAF FNLU 270500Z 2706/2812 VRB03KT 7000 BKN020 BECMG 2709/2711 16004KT 9000 SCT020 BKN050 PROB30 TEMPO 2713/2717 28010KT 9999 FEW023 SCT050 BECMG 2719/2721 CAVOK TEMPO 2722/2801 VRB03KT 8000 FEW017

Decode

Departure Runways

ID Width Length Bearing (true) Bearing (mag) Surface Threshold Offset Overrun Length
05 148 ft / 45 m 12,153 ft / 3,704 m 46.63° 50.04° Asphalt 0 ft / 0 m 0 ft / 0 m
07 197 ft / 60 m 8,176 ft / 2,492 m 67.40° 70.81° Asphalt 0 ft / 0 m 176 ft / 54 m
23 148 ft / 45 m 12,153 ft / 3,704 m 226.62° 230.03° Asphalt 500 ft / 152 m 0 ft / 0 m
25 197 ft / 60 m 8,176 ft / 2,492 m 247.40° 250.81° Asphalt 0 ft / 0 m 0 ft / 0 m

FNMA

Details ICAO FNMA (MEG)
Name MALANJE
Region Angola
Timezone Africa/Luanda (UTC+1.0)
Stats Elevation 3,868 ft / 1,179 m (AMSL)
Location -9.525085° 16.312406°
Runways 1
Magnetic Variation 2.698° W

METAR

FNMA 270900Z 12004KT 9999 SCT020 22/20 Q1017

Decode

TAF

Not found

Destination Runways

ID Width Length Bearing (true) Bearing (mag) Surface Threshold Offset Overrun Length
13 98 ft / 30 m 7,247 ft / 2,209 m 123.40° 126.10° Asphalt 0 ft / 0 m 0 ft / 0 m
31 98 ft / 30 m 7,247 ft / 2,209 m 303.40° 306.10° Asphalt 0 ft / 0 m 0 ft / 0 m

Popular Alternatives